Station Historical Data
Daily Summary for May 9, 2017 Units:  Metric    English   Both
« Previous Day
Next Day »
Daily Weekly Monthly Yearly Custom
  High: Low: Average:
Temperature: 13.1 °C 0.4 °C 7.9 °C
Dew Point: 2.6 °C -4.2 °C -0.7 °C
Humidity: 81% 37% 56%
Wind Speed: 16.1km/h 0km/h 4km/h
Wind Gust: 22.5km/h - -
Wind- - SSW
Pressure: 1017.2 hPa 1014.1 hPa -
Precipitation: 0 mm    
Historical Graphs
 
 
Tabular Data for May 9, 2017
Time Temperature Dew Point Pressure Wind Wind Speed Wind Gust Humidity Rainfall Rate (Hourly)
00:04 5.4 °C -3.9 °C 1015.1 hPa WNW 1.6 km/h 8 km/h 51% 0 mm
00:09 5.4 °C -4.2 °C 1015.1 hPa NW 3.2 km/h 8 km/h 50% 0 mm
00:14 5.3 °C -3.7 °C 1015.1 hPa NW 3.2 km/h 8 km/h 52% 0 mm
00:19 5.2 °C -3.8 °C 1015.1 hPa NW 1.6 km/h 6.4 km/h 52% 0 mm
00:24 5.1 °C -3.7 °C 1015.1 hPa Calm   4.8 km/h 53% 0 mm
00:29 5 °C -4.1 °C 1015.1 hPa NW 1.6 km/h 4.8 km/h 52% 0 mm
00:34 5.1 °C -3.7 °C 1015.1 hPa NW 1.6 km/h 6.4 km/h 53% 0 mm
00:39 4.9 °C -4.1 °C 1015.1 hPa Calm   3.2 km/h 52% 0 mm
00:44 4.9 °C -3.3 °C 1015.1 hPa Calm   4.8 km/h 55% 0 mm
00:49 5 °C -3.8 °C 1015.5 hPa Calm   1.6 km/h 53% 0 mm
00:54 4.9 °C -3.3 °C 1015.5 hPa Calm   3.2 km/h 55% 0 mm
00:59 4.9 °C -3.7 °C 1015.1 hPa Calm   3.2 km/h 54% 0 mm
01:04 4.9 °C -3.3 °C 1015.1 hPa NW 1.6 km/h 3.2 km/h 55% 0 mm
01:09 4.9 °C -3.3 °C 1015.1 hPa Calm   3.2 km/h 55% 0 mm
01:14 4.9 °C -3.1 °C 1015.1 hPa Calm   4.8 km/h 56% 0 mm
01:19 4.9 °C -2.9 °C 1015.1 hPa Calm     57% 0 mm
01:24 4.9 °C -3.1 °C 1014.8 hPa Calm   3.2 km/h 56% 0 mm
01:29 5 °C -3.3 °C 1014.8 hPa NW 1.6 km/h 4.8 km/h 55% 0 mm
01:34 4.8 °C -3 °C 1014.8 hPa NW 1.6 km/h 4.8 km/h 57% 0 mm
01:39 4.6 °C -3 °C 1014.8 hPa NW 1.6 km/h 3.2 km/h 58% 0 mm
01:44 4.5 °C -3.1 °C 1014.8 hPa Calm   3.2 km/h 58% 0 mm
01:49 4.4 °C -3.1 °C 1014.8 hPa Calm   1.6 km/h 58% 0 mm
01:54 4.4 °C -3.3 °C 1014.8 hPa NNW 3.2 km/h 6.4 km/h 57% 0 mm
01:59 4.3 °C -3.2 °C 1014.8 hPa Calm   6.4 km/h 58% 0 mm
02:04 4 °C -3.1 °C 1014.8 hPa North 1.6 km/h 6.4 km/h 60% 0 mm
02:09 3.7 °C -3.3 °C 1014.8 hPa North 1.6 km/h 3.2 km/h 60% 0 mm
02:14 3.6 °C -3.2 °C 1014.8 hPa Calm     61% 0 mm
02:19 3.3 °C -3.3 °C 1014.8 hPa Calm     62% 0 mm
02:24 3.2 °C -3.2 °C 1014.8 hPa Calm     63% 0 mm
02:29 2.8 °C -3.3 °C 1014.8 hPa Calm     64% 0 mm
02:34 2.6 °C -3.1 °C 1014.8 hPa Calm     66% 0 mm
02:39 2.4 °C -2.9 °C 1014.8 hPa Calm     68% 0 mm
02:44 2.2 °C -3.1 °C 1014.8 hPa Calm     68% 0 mm
02:49 2 °C -3.1 °C 1014.8 hPa Calm     69% 0 mm
02:54 1.9 °C -3 °C 1014.8 hPa Calm     70% 0 mm
02:59 1.7 °C -3 °C 1014.8 hPa Calm     71% 0 mm
03:04 1.6 °C -2.8 °C 1014.8 hPa Calm     73% 0 mm
03:09 1.5 °C -2.6 °C 1014.4 hPa Calm     74% 0 mm
03:14 1.5 °C -2.6 °C 1014.4 hPa Calm     74% 0 mm
03:19 1.4 °C -2.7 °C 1014.8 hPa Calm     74% 0 mm
03:24 1.5 °C -2.4 °C 1014.8 hPa Calm     75% 0 mm
03:29 1.5 °C -2.3 °C 1014.4 hPa Calm     76% 0 mm
03:34 1.7 °C -2.1 °C 1014.4 hPa Calm     76% 0 mm
03:39 1.9 °C -1.9 °C 1014.4 hPa Calm     76% 0 mm
03:44 2.1 °C -1.5 °C 1014.4 hPa Calm     77% 0 mm
03:49 2.4 °C -1.6 °C 1014.4 hPa Calm     75% 0 mm
03:54 2.7 °C -1.7 °C 1014.4 hPa Calm     73% 0 mm
03:59 2.6 °C -1.6 °C 1014.4 hPa Calm     74% 0 mm
04:04 2.4 °C -1.8 °C 1014.4 hPa Calm     74% 0 mm
04:09 2.2 °C -1.8 °C 1014.4 hPa Calm     75% 0 mm
04:14 2.1 °C -1.9 °C 1014.4 hPa Calm     75% 0 mm
04:19 2 °C -1.9 °C 1014.4 hPa Calm     75% 0 mm
04:24 1.9 °C -1.8 °C 1014.4 hPa Calm     76% 0 mm
04:29 2 °C -1.6 °C 1014.1 hPa Calm     77% 0 mm
04:34 1.8 °C -1.8 °C 1014.4 hPa Calm     77% 0 mm
04:39 1.7 °C -1.8 °C 1014.4 hPa Calm     78% 0 mm
04:44 1.5 °C -1.7 °C 1014.4 hPa Calm     79% 0 mm
04:49 1.4 °C -1.8 °C 1014.1 hPa Calm     79% 0 mm
04:54 1.3 °C -1.9 °C 1014.1 hPa Calm     79% 0 mm
04:59 1.2 °C -1.9 °C 1014.4 hPa Calm     80% 0 mm
05:04 1.1 °C -1.9 °C 1014.4 hPa Calm     80% 0 mm
05:09 1.2 °C -2.1 °C 1014.4 hPa Calm   1.6 km/h 79% 0 mm
05:14 1.3 °C -2.3 °C 1014.1 hPa Calm   3.2 km/h 77% 0 mm
05:19 1.3 °C -2.3 °C 1014.1 hPa ENE 1.6 km/h 3.2 km/h 77% 0 mm
05:24 1.3 °C -2.5 °C 1014.1 hPa Calm   6.4 km/h 76% 0 mm
05:29 1.3 °C -2.6 °C 1014.4 hPa Calm   4.8 km/h 75% 0 mm
05:34 1.3 °C -2.5 °C 1014.4 hPa Calm     76% 0 mm
05:39 1.1 °C -2.7 °C 1014.4 hPa Calm     76% 0 mm
05:44 1 °C -2.6 °C 1014.4 hPa Calm     77% 0 mm
05:49 0.8 °C -2.6 °C 1014.4 hPa Calm     78% 0 mm
05:54 0.7 °C -2.5 °C 1014.8 hPa Calm     79% 0 mm
05:59 0.6 °C -2.6 °C 1014.8 hPa Calm     79% 0 mm
06:04 0.7 °C -2.6 °C 1014.8 hPa Calm     79% 0 mm
06:09 0.7 °C -2.6 °C 1014.8 hPa Calm     79% 0 mm
06:14 0.6 °C -2.6 °C 1015.1 hPa Calm     79% 0 mm
06:19 0.6 °C -2.6 °C 1015.1 hPa Calm     79% 0 mm
06:24 0.4 °C -2.6 °C 1015.1 hPa Calm     80% 0 mm
06:29 0.5 °C -2.4 °C 1015.5 hPa Calm     81% 0 mm
06:34 0.6 °C -2.3 °C 1015.5 hPa Calm     81% 0 mm
06:39 0.5 °C -2.4 °C 1015.5 hPa Calm     81% 0 mm
06:44 0.6 °C -2.3 °C 1015.5 hPa Calm     81% 0 mm
06:49 0.8 °C -2.1 °C 1015.5 hPa Calm     81% 0 mm
06:54 1.1 °C -2 °C 1015.5 hPa Calm     80% 0 mm
06:59 1.4 °C -1.6 °C 1015.8 hPa Calm   3.2 km/h 80% 0 mm
07:04 1.7 °C -1.6 °C 1015.8 hPa Calm   3.2 km/h 79% 0 mm
07:09 2.1 °C -1.6 °C 1015.8 hPa Calm   3.2 km/h 77% 0 mm
07:14 2.4 °C -1.3 °C 1016.1 hPa Calm   4.8 km/h 76% 0 mm
07:19 2.7 °C -1.3 °C 1016.1 hPa Calm   4.8 km/h 75% 0 mm
07:24 2.9 °C -1.2 °C 1015.8 hPa Calm     74% 0 mm
07:29 3.2 °C -1.2 °C 1015.8 hPa Calm     73% 0 mm
07:34 3.5 °C -1.1 °C 1016.1 hPa Calm   3.2 km/h 72% 0 mm
07:39 3.7 °C -0.9 °C 1016.1 hPa Calm   3.2 km/h 72% 0 mm
07:44 4.1 °C -0.6 °C 1016.1 hPa Calm     72% 0 mm
07:49 4.3 °C -0.3 °C 1016.1 hPa Calm     72% 0 mm
07:54 4.5 °C -0.3 °C 1016.1 hPa Calm     71% 0 mm
07:59 5.3 °C 0.2 °C 1016.1 hPa Calm     70% 0 mm
08:04 5.6 °C 0.1 °C 1016.1 hPa NW 1.6 km/h 3.2 km/h 68% 0 mm
08:09 6.1 °C -0.2 °C 1016.1 hPa NW 1.6 km/h 4.8 km/h 64% 0 mm
08:14 6 °C -0.5 °C 1016.1 hPa WNW 4.8 km/h 6.4 km/h 63% 0 mm
08:19 6.3 °C -0.5 °C 1016.1 hPa WNW 4.8 km/h 6.4 km/h 62% 0 mm
08:24 6.6 °C 0 °C 1016.1 hPa NW 4.8 km/h 8 km/h 63% 0 mm
08:29 6.8 °C -0.4 °C 1016.5 hPa West 6.4 km/h 8 km/h 60% 0 mm
08:34 6.7 °C -0.7 °C 1016.5 hPa WNW 1.6 km/h 6.4 km/h 59% 0 mm
08:39 6.9 °C -0.3 °C 1016.5 hPa WNW 4.8 km/h 11.3 km/h 60% 0 mm
08:44 7.2 °C -0.1 °C 1016.1 hPa WNW 3.2 km/h 11.3 km/h 60% 0 mm
08:49 7.3 °C -0.6 °C 1016.5 hPa WNW 3.2 km/h 8 km/h 57% 0 mm
08:54 7.6 °C -0.4 °C 1016.5 hPa WNW 3.2 km/h 8 km/h 57% 0 mm
08:59 7.7 °C -0.5 °C 1016.5 hPa NW 6.4 km/h 11.3 km/h 56% 0 mm
09:04 7.9 °C 0.4 °C 1016.1 hPa WNW 6.4 km/h 9.7 km/h 59% 0 mm
09:09 7.6 °C -0.7 °C 1016.5 hPa WNW 4.8 km/h 9.7 km/h 56% 0 mm
09:14 8 °C -0.5 °C 1016.5 hPa West 3.2 km/h 6.4 km/h 55% 0 mm
09:19 8.2 °C -0.6 °C 1016.5 hPa WNW 1.6 km/h 9.7 km/h 54% 0 mm
09:24 8.3 °C -0.9 °C 1016.5 hPa West 3.2 km/h 12.9 km/h 52% 0 mm
09:29 8.6 °C 0.3 °C 1016.1 hPa SSW 1.6 km/h 6.4 km/h 56% 0 mm
09:34 9.1 °C -0.3 °C 1016.1 hPa West 3.2 km/h 12.9 km/h 52% 0 mm
09:39 9.1 °C -0.1 °C 1016.5 hPa WNW 4.8 km/h 12.9 km/h 53% 0 mm
09:44 8.9 °C -1 °C 1016.5 hPa NW 4.8 km/h 11.3 km/h 50% 0 mm
09:49 9.3 °C -0.1 °C 1016.5 hPa West 4.8 km/h 11.3 km/h 52% 0 mm
09:54 9.3 °C -0.1 °C 1016.5 hPa WSW 4.8 km/h 14.5 km/h 52% 0 mm
09:59 9.4 °C -0.7 °C 1016.5 hPa WSW 4.8 km/h 9.7 km/h 49% 0 mm
10:04 9.5 °C -1 °C 1016.1 hPa West 6.4 km/h 14.5 km/h 48% 0 mm
10:09 9.7 °C -1.3 °C 1016.1 hPa West 6.4 km/h 14.5 km/h 46% 0 mm
10:14 9.8 °C -0.7 °C 1016.5 hPa West 6.4 km/h 14.5 km/h 48% 0 mm
10:19 9.7 °C -1.1 °C 1016.1 hPa WSW 6.4 km/h 14.5 km/h 47% 0 mm
10:24 9.9 °C -0.3 °C 1016.5 hPa WSW 4.8 km/h 11.3 km/h 49% 0 mm
10:29 9.9 °C -0.8 °C 1016.1 hPa West 6.4 km/h 11.3 km/h 47% 0 mm
10:34 10.1 °C -1.3 °C 1016.5 hPa WSW 4.8 km/h 11.3 km/h 45% 0 mm
10:39 9.7 °C -1.7 °C 1016.5 hPa WSW 6.4 km/h 14.5 km/h 45% 0 mm
10:44 10 °C -0.8 °C 1016.5 hPa West 4.8 km/h 17.7 km/h 47% 0 mm
10:49 9.7 °C -0.6 °C 1016.5 hPa WSW 9.7 km/h 12.9 km/h 49% 0 mm
10:54 9.8 °C -0.9 °C 1016.5 hPa WNW 6.4 km/h 17.7 km/h 47% 0 mm
10:59 9.9 °C 0.6 °C 1016.5 hPa SSW 3.2 km/h 11.3 km/h 52% 0 mm
11:04 10.5 °C -0.1 °C 1016.5 hPa WSW 4.8 km/h 12.9 km/h 48% 0 mm
11:09 10.7 °C 0.4 °C 1016.5 hPa West 6.4 km/h 12.9 km/h 49% 0 mm
11:14 10.9 °C 0.9 °C 1016.5 hPa West 6.4 km/h 12.9 km/h 50% 0 mm
11:19 10.7 °C 1.3 °C 1016.5 hPa WSW 6.4 km/h 12.9 km/h 52% 0 mm
11:24 10.7 °C 1.3 °C 1016.5 hPa WSW 8 km/h 16.1 km/h 52% 0 mm
11:29 10.5 °C 1.1 °C 1016.5 hPa WSW 6.4 km/h 16.1 km/h 52% 0 mm
11:34 10.3 °C 0 °C 1016.5 hPa SW 8 km/h 16.1 km/h 49% 0 mm
11:39 10.4 °C 0.7 °C 1016.5 hPa West 6.4 km/h 12.9 km/h 51% 0 mm
11:44 10.6 °C 0.3 °C 1016.5 hPa South 16.1 km/h 17.7 km/h 49% 0 mm
11:49 10.2 °C -1.3 °C 1016.5 hPa WSW 3.2 km/h 16.1 km/h 45% 0 mm
11:54 11 °C 0.7 °C 1016.5 hPa South 6.4 km/h 16.1 km/h 49% 0 mm
11:59 11.3 °C 0.3 °C 1016.5 hPa WSW 3.2 km/h 12.9 km/h 47% 0 mm
12:04 11.1 °C -0.2 °C 1016.5 hPa SW 6.4 km/h 16.1 km/h 46% 0 mm
12:09 10.9 °C -1.2 °C 1016.5 hPa SW 8 km/h 17.7 km/h 43% 0 mm
12:14 11.1 °C -1.4 °C 1016.5 hPa SW 8 km/h 17.7 km/h 42% 0 mm
12:19 11.3 °C 1 °C 1016.1 hPa WSW 8 km/h 14.5 km/h 49% 0 mm
12:24 11.3 °C 0.4 °C 1016.1 hPa SSW 6.4 km/h 14.5 km/h 47% 0 mm
12:29 11 °C -1.8 °C 1016.1 hPa South 6.4 km/h 16.1 km/h 41% 0 mm
12:34 11.2 °C -0.7 °C 1016.1 hPa SW 8 km/h 16.1 km/h 44% 0 mm
12:39 11.3 °C -0.8 °C 1016.1 hPa WSW 8 km/h 14.5 km/h 43% 0 mm
12:44 11.6 °C 0 °C 1016.1 hPa WSW 8 km/h 17.7 km/h 45% 0 mm
12:49 11.7 °C 1.6 °C 1015.8 hPa NW 3.2 km/h 12.9 km/h 50% 0 mm
12:54 11.5 °C 0.3 °C 1016.1 hPa WSW 8 km/h 14.5 km/h 46% 0 mm
12:59 11.6 °C -0.9 °C 1016.1 hPa West 12.9 km/h 12.9 km/h 42% 0 mm
13:04 11.8 °C -0.1 °C 1015.8 hPa WSW 8 km/h 12.9 km/h 44% 0 mm
13:09 11.6 °C 0.3 °C 1016.1 hPa WSW 6.4 km/h 14.5 km/h 46% 0 mm
13:14 11.5 °C -1.3 °C 1016.1 hPa WSW 8 km/h 14.5 km/h 41% 0 mm
13:19 11.6 °C -0.6 °C 1016.1 hPa SSW 8 km/h 16.1 km/h 43% 0 mm
13:24 12.2 °C -0.3 °C 1016.1 hPa SSW 9.7 km/h 14.5 km/h 42% 0 mm
13:29 12.2 °C 0 °C 1016.1 hPa WSW 8 km/h 16.1 km/h 43% 0 mm
13:34 12.3 °C 0.7 °C 1016.1 hPa West 8 km/h 17.7 km/h 45% 0 mm
13:39 11.9 °C 0.4 °C 1016.1 hPa WSW 9.7 km/h 19.3 km/h 45% 0 mm
13:44 11.6 °C -0.9 °C 1016.1 hPa SW 9.7 km/h 19.3 km/h 42% 0 mm
13:49 11.7 °C 0.8 °C 1016.1 hPa WSW 9.7 km/h 17.7 km/h 47% 0 mm
13:54 12.3 °C 0.1 °C 1016.1 hPa WSW 9.7 km/h 20.9 km/h 43% 0 mm
13:59 12.2 °C 0.3 °C 1016.1 hPa WSW 6.4 km/h 17.7 km/h 44% 0 mm
14:04 12.5 °C -0.1 °C 1016.1 hPa WSW 8 km/h 17.7 km/h 42% 0 mm
14:09 12.3 °C -0.3 °C 1016.1 hPa WSW 16.1 km/h 16.1 km/h 42% 0 mm
14:14 12.1 °C 0.2 °C 1016.1 hPa SW 3.2 km/h 17.7 km/h 44% 0 mm
14:19 12.2 °C -1.1 °C 1016.1 hPa SSW 11.3 km/h 16.1 km/h 40% 0 mm
14:24 12.6 °C 0.6 °C 1016.1 hPa West 3.2 km/h 14.5 km/h 44% 0 mm
14:29 12.4 °C -0.1 °C 1015.8 hPa South 11.3 km/h 16.1 km/h 42% 0 mm
14:34 12.7 °C 0.1 °C 1016.1 hPa WSW 9.7 km/h 16.1 km/h 42% 0 mm
14:39 13.1 °C 0.8 °C 1015.8 hPa SW 8 km/h 12.9 km/h 43% 0 mm
14:44 12.3 °C -0.6 °C 1015.8 hPa SW 9.7 km/h 17.7 km/h 41% 0 mm
14:49 12.5 °C 0.6 °C 1015.8 hPa SSW 11.3 km/h 22.5 km/h 44% 0 mm
14:54 12.7 °C 0.1 °C 1015.8 hPa WSW 9.7 km/h 17.7 km/h 42% 0 mm
14:59 12.3 °C 0.1 °C 1016.1 hPa West 8 km/h 17.7 km/h 43% 0 mm
15:04 11.7 °C 0.4 °C 1016.1 hPa WSW 8 km/h 17.7 km/h 46% 0 mm
15:09 11.7 °C -0.5 °C 1016.1 hPa WSW 8 km/h 17.7 km/h 43% 0 mm
15:14 11.9 °C -0.3 °C 1016.1 hPa WSW 8 km/h 17.7 km/h 43% 0 mm
15:19 12.2 °C -0.4 °C 1016.1 hPa SW 8 km/h 16.1 km/h 42% 0 mm
15:24 12.8 °C 2.6 °C 1016.1 hPa WSW 6.4 km/h 12.9 km/h 50% 0 mm
15:29 12.6 °C 0.6 °C 1015.8 hPa WSW 6.4 km/h 14.5 km/h 44% 0 mm
15:34 12.7 °C 1.9 °C 1015.8 hPa West 6.4 km/h 12.9 km/h 48% 0 mm
15:39 12.2 °C -0.7 °C 1015.8 hPa SW 1.6 km/h 11.3 km/h 41% 0 mm
15:44 12.4 °C 0.4 °C 1015.8 hPa WSW 6.4 km/h 14.5 km/h 44% 0 mm
15:49 12.2 °C 0 °C 1015.8 hPa WSW 6.4 km/h 11.3 km/h 43% 0 mm
15:54 12.3 °C 0.1 °C 1015.8 hPa SW 4.8 km/h 12.9 km/h 43% 0 mm
15:59 12.3 °C 0.4 °C 1015.8 hPa WSW 6.4 km/h 12.9 km/h 44% 0 mm
16:04 12.3 °C 0.1 °C 1015.8 hPa WSW 6.4 km/h 12.9 km/h 43% 0 mm
16:09 12.3 °C 1 °C 1015.8 hPa SW 6.4 km/h 12.9 km/h 46% 0 mm
16:14 12.6 °C 0.7 °C 1015.8 hPa SW 4.8 km/h 12.9 km/h 44% 0 mm
16:19 12.6 °C 0.3 °C 1015.8 hPa SW 4.8 km/h 11.3 km/h 43% 0 mm
16:24 12.6 °C 0.6 °C 1015.8 hPa WSW 6.4 km/h 12.9 km/h 44% 0 mm
16:29 12.2 °C 0.3 °C 1015.8 hPa SW 4.8 km/h 12.9 km/h 44% 0 mm
16:34 12.3 °C 0.7 °C 1015.8 hPa WSW 4.8 km/h 11.3 km/h 45% 0 mm
16:39 12.4 °C 0.2 °C 1015.5 hPa SSW 1.6 km/h 6.4 km/h 43% 0 mm
16:44 12.5 °C -0.8 °C 1015.5 hPa South 4.8 km/h 8 km/h 40% 0 mm
16:49 12.8 °C 1.5 °C 1015.8 hPa WSW 3.2 km/h 8 km/h 46% 0 mm
16:54 12.8 °C 0.6 °C 1015.8 hPa SSW 1.6 km/h 8 km/h 43% 0 mm
16:59 13.1 °C -0.3 °C 1015.8 hPa WSW 3.2 km/h 9.7 km/h 40% 0 mm
17:04 12.9 °C 0.3 °C 1015.8 hPa WNW 3.2 km/h 9.7 km/h 42% 0 mm
17:09 12.6 °C 0.3 °C 1015.8 hPa WNW 1.6 km/h 6.4 km/h 43% 0 mm
17:14 12.9 °C -0.4 °C 1015.8 hPa WNW 3.2 km/h 8 km/h 40% 0 mm
17:19 12.6 °C -0.4 °C 1015.8 hPa West 3.2 km/h 9.7 km/h 41% 0 mm
17:24 12.6 °C -0.7 °C 1015.8 hPa WSW 3.2 km/h 6.4 km/h 40% 0 mm
17:29 12.3 °C 0.1 °C 1015.8 hPa WSW 3.2 km/h 9.7 km/h 43% 0 mm
17:34 12.3 °C -0.2 °C 1015.8 hPa SW 4.8 km/h 8 km/h 42% 0 mm
17:39 12.4 °C -1.2 °C 1015.8 hPa Calm   4.8 km/h 39% 0 mm
17:44 12.4 °C -1.5 °C 1015.8 hPa ENE 3.2 km/h 11.3 km/h 38% 0 mm
17:49 12.3 °C -0.9 °C 1015.8 hPa NE 3.2 km/h 6.4 km/h 40% 0 mm
17:54 12.5 °C -0.8 °C 1015.8 hPa NNW 4.8 km/h 8 km/h 40% 0 mm
17:59 12.3 °C -1.9 °C 1015.8 hPa North 4.8 km/h 9.7 km/h 37% 0 mm
18:04 12.2 °C -0.7 °C 1015.8 hPa NNW 3.2 km/h 9.7 km/h 41% 0 mm
18:09 11.9 °C -1.3 °C 1016.1 hPa NNW 1.6 km/h 6.4 km/h 40% 0 mm
18:14 11.8 °C -1.7 °C 1015.8 hPa Calm   4.8 km/h 39% 0 mm
18:19 11.9 °C -0.6 °C 1015.8 hPa NE 3.2 km/h 8 km/h 42% 0 mm
18:24 12 °C -0.2 °C 1015.8 hPa ENE 3.2 km/h 6.4 km/h 43% 0 mm
18:29 11.9 °C -1.3 °C 1015.8 hPa ENE 3.2 km/h 6.4 km/h 40% 0 mm
18:34 11.8 °C 0.2 °C 1015.8 hPa ENE 3.2 km/h 11.3 km/h 45% 0 mm
18:39 11.7 °C -0.2 °C 1015.8 hPa NE 4.8 km/h 11.3 km/h 44% 0 mm
18:44 11.6 °C 0 °C 1015.8 hPa NE 3.2 km/h 12.9 km/h 45% 0 mm
18:49 11.3 °C 0.1 °C 1015.8 hPa NNE 3.2 km/h 11.3 km/h 46% 0 mm
18:54 11.3 °C -0.2 °C 1016.1 hPa ENE 6.4 km/h 11.3 km/h 45% 0 mm
18:59 11.3 °C -0.2 °C 1016.1 hPa NE 4.8 km/h 11.3 km/h 45% 0 mm
19:04 11.3 °C -0.2 °C 1016.1 hPa NE 3.2 km/h 8 km/h 45% 0 mm
19:09 11.3 °C -0.2 °C 1016.1 hPa NE 3.2 km/h 9.7 km/h 45% 0 mm
19:14 11.1 °C -0.4 °C 1016.5 hPa NE 4.8 km/h 6.4 km/h 45% 0 mm
19:19 11.1 °C -0.2 °C 1016.5 hPa NE 3.2 km/h 6.4 km/h 46% 0 mm
19:24 11.1 °C 0.2 °C 1016.1 hPa NE 3.2 km/h 9.7 km/h 47% 0 mm
19:29 10.9 °C 0.1 °C 1016.5 hPa NE 3.2 km/h 9.7 km/h 47% 0 mm
19:34 10.9 °C 0.3 °C 1016.5 hPa NE 3.2 km/h 8 km/h 48% 0 mm
19:39 10.9 °C 0 °C 1016.5 hPa NE 4.8 km/h 11.3 km/h 47% 0 mm
19:44 10.8 °C 0.2 °C 1016.5 hPa NNE 3.2 km/h 11.3 km/h 48% 0 mm
19:49 10.8 °C -0.1 °C 1016.5 hPa NE 6.4 km/h 12.9 km/h 47% 0 mm
19:54 10.8 °C 0.5 °C 1016.5 hPa NE 4.8 km/h 12.9 km/h 49% 0 mm
19:59 10.7 °C 0.4 °C 1016.5 hPa NE 6.4 km/h 14.5 km/h 49% 0 mm
20:04 10.6 °C 0.6 °C 1016.5 hPa ESE 11.3 km/h 14.5 km/h 50% 0 mm
20:09 10.5 °C 0.8 °C 1016.5 hPa ENE 4.8 km/h 12.9 km/h 51% 0 mm
20:14 10.4 °C 1 °C 1016.5 hPa NE 6.4 km/h 16.1 km/h 52% 0 mm
20:19 10.3 °C 1.2 °C 1016.5 hPa NE 6.4 km/h 14.5 km/h 53% 0 mm
20:24 10.2 °C 1.1 °C 1016.5 hPa NE 8 km/h 16.1 km/h 53% 0 mm
20:29 10.1 °C 1.2 °C 1016.1 hPa ENE 8 km/h 16.1 km/h 54% 0 mm
20:34 10.1 °C 1.4 °C 1016.1 hPa ENE 8 km/h 14.5 km/h 55% 0 mm
20:39 9.9 °C 1.6 °C 1016.1 hPa ENE 8 km/h 17.7 km/h 56% 0 mm
20:44 9.8 °C 1.7 °C 1016.1 hPa NE 12.9 km/h 16.1 km/h 57% 0 mm
20:49 9.7 °C 1.8 °C 1016.5 hPa NE 6.4 km/h 17.7 km/h 58% 0 mm
20:54 9.6 °C 1.7 °C 1016.1 hPa NE 9.7 km/h 19.3 km/h 58% 0 mm
20:59 9.5 °C 1.6 °C 1016.5 hPa NE 9.7 km/h 19.3 km/h 58% 0 mm
21:04 9.4 °C 1.8 °C 1016.5 hPa NE 9.7 km/h 16.1 km/h 59% 0 mm
21:09 9.3 °C 1.7 °C 1016.5 hPa NE 8 km/h 20.9 km/h 59% 0 mm
21:14 9.2 °C 1.6 °C 1016.5 hPa East 16.1 km/h 17.7 km/h 59% 0 mm
21:19 9.2 °C 1.6 °C 1016.8 hPa NE 9.7 km/h 14.5 km/h 59% 0 mm
21:24 9.1 °C 1.2 °C 1016.8 hPa NE 8 km/h 19.3 km/h 58% 0 mm
21:29 9.1 °C 1.2 °C 1016.8 hPa NE 9.7 km/h 19.3 km/h 58% 0 mm
21:34 8.9 °C 1.1 °C 1016.8 hPa NE 8 km/h 17.7 km/h 58% 0 mm
21:39 8.9 °C 1.1 °C 1016.8 hPa NE 8 km/h 14.5 km/h 58% 0 mm
21:44 8.9 °C 1.1 °C 1016.5 hPa ENE 8 km/h 16.1 km/h 58% 0 mm
21:49 8.8 °C 1 °C 1016.5 hPa NE 6.4 km/h 14.5 km/h 58% 0 mm
21:54 8.8 °C 1.3 °C 1016.5 hPa ENE 6.4 km/h 9.7 km/h 59% 0 mm
21:59 8.8 °C 1.2 °C 1016.5 hPa ENE 6.4 km/h 12.9 km/h 59% 0 mm
22:04 8.8 °C 1.2 °C 1016.5 hPa East 8 km/h 12.9 km/h 59% 0 mm
22:09 8.7 °C 1.3 °C 1016.5 hPa ENE 6.4 km/h 12.9 km/h 60% 0 mm
22:14 8.7 °C 1.3 °C 1016.5 hPa SE 3.2 km/h 12.9 km/h 60% 0 mm
22:19 8.7 °C 1.3 °C 1016.5 hPa East 1.6 km/h 8 km/h 60% 0 mm
22:24 8.7 °C 1.3 °C 1016.5 hPa ENE 4.8 km/h 9.7 km/h 60% 0 mm
22:29 8.6 °C 1.5 °C 1016.8 hPa ENE 3.2 km/h 9.7 km/h 61% 0 mm
22:34 8.6 °C 1.5 °C 1016.8 hPa East 3.2 km/h 9.7 km/h 61% 0 mm
22:39 8.6 °C 1.4 °C 1016.5 hPa East 3.2 km/h 9.7 km/h 61% 0 mm
22:44 8.6 °C 1.4 °C 1016.8 hPa East 3.2 km/h 9.7 km/h 61% 0 mm
22:49 8.5 °C 1.4 °C 1016.8 hPa ENE 8 km/h 9.7 km/h 61% 0 mm
22:54 8.4 °C 1.1 °C 1016.8 hPa ENE 4.8 km/h 11.3 km/h 60% 0 mm
22:59 8.4 °C 1.1 °C 1016.8 hPa ENE 6.4 km/h 12.9 km/h 60% 0 mm
23:04 8.4 °C 1.1 °C 1016.8 hPa ENE 4.8 km/h 14.5 km/h 60% 0 mm
23:09 8.4 °C 1.1 °C 1016.8 hPa ENE 3.2 km/h 9.7 km/h 60% 0 mm
23:14 8.3 °C 1.2 °C 1016.8 hPa NE 1.6 km/h 9.7 km/h 61% 0 mm
23:19 8.2 °C 1.4 °C 1016.8 hPa ENE 3.2 km/h 11.3 km/h 62% 0 mm
23:24 8.2 °C 1.6 °C 1017.2 hPa ENE 3.2 km/h 11.3 km/h 63% 0 mm
23:29 8.2 °C 1.6 °C 1017.2 hPa East 3.2 km/h 11.3 km/h 63% 0 mm
23:34 8.1 °C 1.4 °C 1017.2 hPa East 4.8 km/h 12.9 km/h 63% 0 mm
23:39 8.1 °C 1.4 °C 1016.8 hPa East 4.8 km/h 12.9 km/h 63% 0 mm
23:44 8 °C 1.4 °C 1017.2 hPa NE 9.7 km/h 12.9 km/h 63% 0 mm
23:49 7.9 °C 1.3 °C 1017.2 hPa NE 11.3 km/h 19.3 km/h 63% 0 mm
23:54 7.9 °C 1.5 °C 1017.2 hPa ENE 8 km/h 19.3 km/h 64% 0 mm
23:59 7.9 °C 1.7 °C 1017.2 hPa ENE 6.4 km/h 11.3 km/h 65% 0 mm
Buffalo, New York, USA
Compliments of Weather Underground - 2.5 mb